Time;durP1;ratioP1;P1;durP2;ratioP2;P2;SDS_P1;SDS_P2;PMS_P1;PMS_P2;Temp;Humidity;BMP_temperature;BMP_pressure;BME280_temperature;BME280_humidity;BME280_pressure;Samples;Min_cycle;Max_cycle;Signal;HPM_P1;HPM_P2
2022/11/23 00:01:28;;;;;;;8.70;4.85;;;8.20;99.90;;;;;;4920045;29;20035;-84
2022/11/23 00:03:56;;;;;;;9.60;5.78;;;8.20;99.90;;;;;;4951472;29;20413;-84
2022/11/23 00:06:23;;;;;;;12.55;5.95;;;8.40;99.90;;;;;;4936293;29;20168;-84
2022/11/23 00:08:50;;;;;;;9.10;5.35;;;8.40;99.90;;;;;;4936396;29;20047;-84
2022/11/23 00:11:17;;;;;;;9.38;4.95;;;8.70;99.90;;;;;;4936736;29;20046;-84
2022/11/23 00:13:44;;;;;;;11.98;6.30;;;8.20;99.90;;;;;;4936497;29;20043;-84
2022/11/23 00:16:22;;;;;;;13.68;5.35;;;8.30;99.90;;;;;;4936396;29;20066;-83
2022/11/23 00:18:50;;;;;;;13.20;6.80;;;8.30;99.90;;;;;;4951879;29;20054;-84
2022/11/23 00:21:18;;;;;;;14.10;5.85;;;8.30;99.90;;;;;;4920926;29;20047;-84
2022/11/23 00:23:44;;;;;;;13.00;6.40;;;8.20;99.90;;;;;;4951942;29;20500;-84
2022/11/23 00:26:10;;;;;;;10.35;6.15;;;8.30;99.90;;;;;;4935716;29;20036;-84
2022/11/23 00:28:38;;;;;;;11.82;6.55;;;8.90;99.90;;;;;;4936083;29;20050;-83
2022/11/23 00:31:09;;;;;;;13.43;6.57;;;8.30;99.90;;;;;;4935853;29;20118;-84
2022/11/23 00:33:35;;;;;;;9.75;5.55;;;8.30;99.90;;;;;;4936153;29;20377;-83
2022/11/23 00:36:07;;;;;;;11.25;6.20;;;8.50;99.90;;;;;;4938385;29;20106;-84
2022/11/23 00:38:33;;;;;;;10.05;5.88;;;8.30;99.90;;;;;;4938961;29;20130;-83
2022/11/23 00:41:08;;;;;;;13.45;7.57;;;8.20;99.90;;;;;;4923657;29;20047;-84
2022/11/23 00:43:33;;;;;;;14.48;7.13;;;8.30;99.90;;;;;;4939394;29;20078;-83
2022/11/23 00:46:21;;;;;;;11.15;6.43;;;8.30;99.90;;;;;;4923576;29;20089;-83
2022/11/23 00:48:49;;;;;;;12.32;6.70;;;8.30;99.90;;;;;;4939259;29;20102;-83
2022/11/23 00:51:20;;;;;;;13.85;6.88;;;8.30;99.90;;;;;;4937896;29;20420;-83
2022/11/23 00:53:45;;;;;;;18.45;7.00;;;8.30;99.90;;;;;;4939410;29;20397;-83
2022/11/23 00:56:11;;;;;;;13.00;6.30;;;8.30;99.90;;;;;;4923044;29;20046;-83
2022/11/23 00:58:37;;;;;;;10.32;6.22;;;8.30;99.90;;;;;;4938460;29;20500;-84
2022/11/23 01:01:12;;;;;;;12.88;7.05;;;8.30;99.90;;;;;;4955143;29;20078;-83
2022/11/23 01:03:41;;;;;;;12.43;7.43;;;8.40;99.90;;;;;;4939543;29;20047;-83
2022/11/23 01:06:09;;;;;;;11.82;7.10;;;8.40;99.90;;;;;;4939166;29;20043;-84
2022/11/23 01:08:36;;;;;;;12.13;6.75;;;8.30;99.90;;;;;;4939245;29;20074;-83
2022/11/23 01:11:05;;;;;;;11.93;7.20;;;8.40;99.90;;;;;;4954582;29;20083;-84
2022/11/23 01:13:31;;;;;;;12.75;6.90;;;8.40;99.90;;;;;;4940047;29;20051;-83
2022/11/23 01:15:57;;;;;;;10.35;5.70;;;8.40;99.90;;;;;;4939232;29;20507;-84
2022/11/23 01:18:23;;;;;;;14.43;6.78;;;8.40;99.90;;;;;;4957248;28;20439;-84
2022/11/23 01:20:49;;;;;;;12.95;7.63;;;8.40;99.90;;;;;;4940700;29;20067;-83
2022/11/23 01:23:15;;;;;;;10.00;6.60;;;8.40;99.90;;;;;;4924076;29;20456;-83
2022/11/23 01:25:41;;;;;;;9.57;5.97;;;8.40;99.90;;;;;;4922704;29;20041;-83
2022/11/23 01:28:06;;;;;;;15.68;7.43;;;8.40;99.90;;;;;;4938509;29;20047;-84
2022/11/23 01:30:33;;;;;;;13.18;7.03;;;8.40;99.90;;;;;;4938346;29;20047;-84
2022/11/23 01:32:59;;;;;;;14.70;8.27;;;8.40;99.90;;;;;;4938866;29;20047;-84
2022/11/23 01:35:25;;;;;;;13.95;7.68;;;8.40;99.90;;;;;;4938850;29;20093;-84
2022/11/23 01:37:50;;;;;;;14.55;7.55;;;8.50;99.90;;;;;;4938558;29;20035;-83
2022/11/23 01:40:16;;;;;;;12.98;7.95;;;8.50;99.90;;;;;;4922066;29;20528;-83
2022/11/23 01:42:53;;;;;;;11.52;8.57;;;8.40;99.90;;;;;;4922833;29;20051;-84
2022/11/23 01:45:54;;;;;;;13.50;8.40;;;8.40;99.90;;;;;;4938224;29;20043;-83
2022/11/23 01:48:31;;;;;;;12.32;8.50;;;8.40;99.90;;;;;;4938103;29;20047;-83
2022/11/23 01:50:59;;;;;;;14.43;8.45;;;8.40;99.90;;;;;;4938250;29;20058;-84
2022/11/23 01:53:27;;;;;;;12.27;9.45;;;8.30;99.90;;;;;;4937728;29;20120;-84
2022/11/23 01:55:56;;;;;;;15.45;8.25;;;8.80;99.90;;;;;;4938054;29;20106;-83
2022/11/23 01:58:23;;;;;;;10.88;7.70;;;8.40;99.90;;;;;;4938024;29;20047;-84
2022/11/23 02:00:50;;;;;;;14.02;9.75;;;8.30;99.90;;;;;;4938354;29;20051;-84
2022/11/23 02:03:17;;;;;;;18.25;8.77;;;8.30;99.90;;;;;;4922056;29;20698;-83
2022/11/23 02:05:46;;;;;;;12.68;8.82;;;8.30;99.90;;;;;;4937229;29;20095;-83
2022/11/23 02:08:15;;;;;;;14.73;10.38;;;8.40;99.90;;;;;;4937129;29;20043;-84
2022/11/23 02:10:41;;;;;;;15.02;8.05;;;8.40;99.90;;;;;;4937864;29;20074;-84
2022/11/23 02:13:10;;;;;;;13.02;9.57;;;8.40;99.90;;;;;;4938523;29;20126;-84
2022/11/23 02:15:36;;;;;;;16.08;9.27;;;8.40;99.90;;;;;;4953866;29;20208;-84
2022/11/23 02:18:07;;;;;;;15.50;10.43;;;8.40;99.90;;;;;;4921358;29;20138;-83
2022/11/23 02:20:33;;;;;;;19.23;11.27;;;8.40;99.90;;;;;;4953120;29;20139;-84
2022/11/23 02:23:14;;;;;;;17.58;10.55;;;8.80;99.90;;;;;;4921278;29;20503;-84
2022/11/23 02:25:43;;;;;;;24.30;11.98;;;8.50;99.90;;;;;;4936646;29;20074;-83
2022/11/23 02:28:12;;;;;;;17.20;11.60;;;8.40;99.90;;;;;;4937206;29;20078;-84
2022/11/23 02:30:39;;;;;;;14.75;9.55;;;8.40;99.90;;;;;;4945078;29;20143;-83
2022/11/23 02:33:05;;;;;;;17.13;11.50;;;8.40;99.90;;;;;;4922052;29;20149;-84
2022/11/23 02:35:32;;;;;;;18.48;11.18;;;8.40;99.90;;;;;;4896604;29;20081;-84
2022/11/23 02:38:01;;;;;;;20.48;10.70;;;8.40;99.90;;;;;;4929295;29;20054;-83
2022/11/23 02:40:35;;;;;;;20.65;11.98;;;8.50;99.90;;;;;;4937415;29;20519;-83
2022/11/23 02:43:02;;;;;;;20.98;12.13;;;8.40;99.90;;;;;;4952774;29;20511;-83
2022/11/23 02:45:34;;;;;;;19.20;12.93;;;8.40;99.90;;;;;;4937178;29;20079;-83
2022/11/23 02:48:00;;;;;;;17.70;12.00;;;8.40;99.90;;;;;;4936870;29;20039;-83
2022/11/23 02:50:26;;;;;;;19.52;12.82;;;8.70;99.90;;;;;;4937134;29;20046;-84
2022/11/23 02:52:52;;;;;;;19.77;13.27;;;8.50;99.90;;;;;;4937191;29;20122;-84
2022/11/23 02:55:18;;;;;;;20.25;13.15;;;8.90;99.90;;;;;;4921330;29;20088;-83
2022/11/23 02:57:44;;;;;;;23.73;14.35;;;8.40;99.90;;;;;;4921016;29;20079;-83
2022/11/23 03:00:10;;;;;;;19.98;13.65;;;8.40;99.90;;;;;;4921126;29;20499;-84
2022/11/23 03:02:36;;;;;;;23.10;12.82;;;8.40;99.90;;;;;;4921274;29;20055;-83
2022/11/23 03:05:02;;;;;;;16.60;12.32;;;8.40;99.90;;;;;;4921395;29;20039;-84
2022/11/23 03:07:28;;;;;;;25.95;13.18;;;8.40;99.90;;;;;;4920244;29;20165;-83
2022/11/23 03:09:54;;;;;;;19.70;13.63;;;8.40;99.90;;;;;;4927589;29;20093;-84
2022/11/23 03:12:19;;;;;;;19.35;11.52;;;8.60;99.90;;;;;;4920838;29;20047;-84
2022/11/23 03:14:45;;;;;;;23.33;13.80;;;8.40;99.90;;;;;;4936664;29;20082;-84
2022/11/23 03:17:12;;;;;;;24.52;13.18;;;8.40;99.90;;;;;;4920642;29;20055;-83
2022/11/23 03:19:37;;;;;;;24.23;15.15;;;8.40;99.90;;;;;;4936879;29;20570;-84
2022/11/23 03:22:03;;;;;;;23.90;15.07;;;8.40;99.90;;;;;;4920494;29;20634;-84
2022/11/23 03:24:29;;;;;;;18.90;13.00;;;8.40;99.90;;;;;;4936975;29;20081;-85
2022/11/23 03:26:54;;;;;;;21.40;13.55;;;8.40;99.90;;;;;;4920830;29;20130;-84
2022/11/23 03:29:24;;;;;;;21.13;12.98;;;9.70;99.90;;;;;;4936431;29;20575;-83
2022/11/23 03:31:50;;;;;;;22.75;14.27;;;8.40;99.90;;;;;;4936554;29;20039;-83
2022/11/23 03:34:15;;;;;;;25.63;16.00;;;8.40;99.90;;;;;;4920489;29;20046;-84
2022/11/23 03:36:41;;;;;;;25.92;16.95;;;8.40;99.90;;;;;;4921822;29;20043;-84
2022/11/23 03:39:07;;;;;;;28.13;17.45;;;8.50;99.90;;;;;;4921322;29;20131;-84
2022/11/23 03:41:32;;;;;;;29.55;18.17;;;8.40;99.90;;;;;;4944116;29;20050;-83
2022/11/23 03:43:58;;;;;;;28.02;17.88;;;8.30;99.90;;;;;;4940377;29;20067;-83
2022/11/23 03:46:24;;;;;;;26.50;18.75;;;8.30;99.90;;;;;;4944512;29;20035;-83
2022/11/23 03:48:49;;;;;;;26.20;16.40;;;8.30;99.90;;;;;;4920798;29;20058;-84
2022/11/23 03:51:15;;;;;;;35.55;17.92;;;8.30;99.90;;;;;;4920814;29;20055;-83
2022/11/23 03:53:41;;;;;;;30.42;18.73;;;8.30;99.90;;;;;;4952896;29;20126;-83
2022/11/23 03:56:07;;;;;;;27.13;18.02;;;8.40;99.90;;;;;;4920655;29;20053;-84
2022/11/23 03:58:33;;;;;;;21.30;15.13;;;8.30;99.90;;;;;;4936841;29;20054;-83
2022/11/23 04:00:58;;;;;;;29.42;18.88;;;8.40;99.90;;;;;;4920681;29;20043;-83
2022/11/23 04:03:24;;;;;;;35.67;20.92;;;8.30;99.90;;;;;;4936378;29;20039;-84
2022/11/23 04:05:50;;;;;;;29.65;17.77;;;8.40;99.90;;;;;;4935822;29;20043;-84
2022/11/23 04:08:15;;;;;;;29.42;20.15;;;8.70;99.90;;;;;;4896883;29;20126;-84
2022/11/23 04:10:41;;;;;;;28.63;18.10;;;8.30;99.90;;;;;;4939842;29;20043;-83
2022/11/23 04:13:07;;;;;;;34.30;20.83;;;9.40;99.90;;;;;;4938931;29;20043;-83
2022/11/23 04:15:32;;;;;;;29.38;19.02;;;8.40;99.90;;;;;;4923817;29;20066;-84
2022/11/23 04:17:58;;;;;;;31.77;19.40;;;8.30;99.90;;;;;;4923789;29;20134;-84
2022/11/23 04:20:24;;;;;;;32.03;17.90;;;8.30;99.90;;;;;;4939397;29;20047;-84
2022/11/23 04:22:50;;;;;;;30.60;19.75;;;8.30;99.90;;;;;;4924354;29;20043;-83
2022/11/23 04:25:16;;;;;;;27.90;17.95;;;8.40;99.90;;;;;;4924170;29;20050;-84
2022/11/23 04:27:41;;;;;;;27.25;17.50;;;8.30;99.90;;;;;;4923408;29;20528;-83
2022/11/23 04:30:08;;;;;;;26.90;19.95;;;8.60;99.90;;;;;;4923724;29;20031;-84
2022/11/23 04:32:34;;;;;;;31.48;20.45;;;8.30;99.90;;;;;;4939216;29;20054;-84
2022/11/23 04:34:59;;;;;;;31.58;20.40;;;8.90;99.90;;;;;;4924512;29;20043;-83
2022/11/23 04:37:25;;;;;;;31.15;20.33;;;8.30;99.90;;;;;;4940289;29;20045;-83
2022/11/23 04:39:51;;;;;;;32.25;17.63;;;8.30;99.90;;;;;;4923848;29;20125;-84
2022/11/23 04:42:16;;;;;;;27.58;17.80;;;8.60;99.90;;;;;;4939601;29;20046;-83
2022/11/23 04:44:42;;;;;;;27.67;18.40;;;8.30;99.90;;;;;;4939248;29;20043;-83
2022/11/23 04:47:09;;;;;;;28.85;15.07;;;8.40;99.90;;;;;;4939042;29;20046;-84
2022/11/23 04:49:35;;;;;;;25.52;16.77;;;8.40;99.90;;;;;;4923464;29;20050;-84
2022/11/23 04:52:00;;;;;;;27.48;16.60;;;8.50;99.90;;;;;;4923707;29;20039;-84
2022/11/23 04:54:26;;;;;;;26.48;17.17;;;8.40;99.90;;;;;;4923152;29;20524;-83
2022/11/23 04:56:53;;;;;;;38.00;15.00;;;8.40;99.90;;;;;;4939336;29;20065;-83
2022/11/23 04:59:18;;;;;;;26.20;15.85;;;8.40;99.90;;;;;;4938995;29;20057;-83
2022/11/23 05:01:44;;;;;;;22.17;15.10;;;8.40;99.90;;;;;;4914801;29;20403;-83
2022/11/23 05:04:10;;;;;;;27.42;15.70;;;8.80;99.90;;;;;;4922872;29;20043;-84
2022/11/23 05:06:36;;;;;;;23.33;14.10;;;8.40;99.90;;;;;;4923061;29;20046;-83
2022/11/23 05:09:01;;;;;;;23.88;13.98;;;8.50;99.90;;;;;;4922809;29;20415;-83
2022/11/23 05:11:27;;;;;;;24.75;15.32;;;8.50;99.90;;;;;;4938840;29;20047;-83
2022/11/23 05:13:53;;;;;;;23.83;12.52;;;8.50;99.90;;;;;;4938908;29;20047;-84
2022/11/23 05:16:18;;;;;;;21.20;11.82;;;8.90;99.90;;;;;;4923827;29;20480;-83
2022/11/23 05:18:44;;;;;;;20.13;13.02;;;8.40;99.90;;;;;;4938340;29;20483;-83
2022/11/23 05:21:10;;;;;;;16.10;10.23;;;8.40;99.90;;;;;;4938097;29;20054;-84
2022/11/23 05:23:36;;;;;;;19.30;11.10;;;8.40;99.90;;;;;;4954410;29;20062;-84
2022/11/23 05:26:01;;;;;;;20.42;11.85;;;8.30;99.90;;;;;;4938297;29;20066;-84
2022/11/23 05:28:27;;;;;;;22.70;12.70;;;8.30;99.90;;;;;;4938455;29;20055;-84
2022/11/23 05:30:53;;;;;;;16.58;11.95;;;8.30;99.90;;;;;;4953591;29;20455;-83
2022/11/23 05:33:19;;;;;;;17.55;10.30;;;8.30;99.90;;;;;;4936906;29;20043;-84
2022/11/23 05:35:44;;;;;;;16.92;9.68;;;8.20;99.90;;;;;;4937707;29;20113;-83
2022/11/23 05:38:10;;;;;;;20.80;11.48;;;8.20;99.90;;;;;;4922619;29;20408;-84
2022/11/23 05:40:36;;;;;;;17.73;9.43;;;8.20;99.90;;;;;;4922368;29;20046;-84
2022/11/23 05:43:02;;;;;;;17.08;10.52;;;8.20;99.90;;;;;;4921996;29;20118;-84
2022/11/23 05:45:28;;;;;;;17.23;9.48;;;8.70;99.90;;;;;;4914824;28;20050;-83
2022/11/23 05:47:56;;;;;;;16.45;8.57;;;8.10;99.90;;;;;;4920747;29;20047;-84
2022/11/23 05:50:24;;;;;;;18.70;9.27;;;8.20;99.90;;;;;;4930540;29;20082;-83
2022/11/23 05:52:50;;;;;;;15.00;8.18;;;8.20;99.90;;;;;;4937416;29;20047;-84
2022/11/23 05:55:16;;;;;;;14.50;7.57;;;8.10;99.90;;;;;;4938187;29;20159;-83
2022/11/23 05:57:42;;;;;;;12.10;8.20;;;8.10;99.90;;;;;;4921740;29;20098;-84
2022/11/23 06:00:11;;;;;;;16.88;8.43;;;8.10;99.90;;;;;;4937890;29;20400;-83
2022/11/23 06:02:37;;;;;;;17.25;8.18;;;8.00;99.90;;;;;;4938234;29;20043;-84
2022/11/23 06:05:04;;;;;;;14.70;7.90;;;8.00;99.90;;;;;;4914112;29;20054;-84
2022/11/23 06:07:31;;;;;;;16.02;7.68;;;7.90;99.90;;;;;;4953640;29;20496;-83
2022/11/23 06:09:57;;;;;;;13.65;7.53;;;7.90;99.90;;;;;;4937639;29;20043;-83
2022/11/23 06:12:23;;;;;;;15.60;7.85;;;7.80;99.90;;;;;;4937908;29;20043;-84
2022/11/23 06:14:48;;;;;;;14.88;6.90;;;7.80;99.90;;;;;;4953864;29;20166;-83
2022/11/23 06:17:14;;;;;;;13.60;6.93;;;7.80;99.90;;;;;;4921280;29;20114;-83
2022/11/23 06:19:40;;;;;;;12.10;6.95;;;7.80;99.90;;;;;;4922350;29;20155;-84
2022/11/23 06:22:06;;;;;;;16.38;6.90;;;7.70;99.90;;;;;;4937426;29;20035;-84
2022/11/23 06:24:32;;;;;;;12.57;6.57;;;8.10;99.90;;;;;;4938716;29;20039;-84
2022/11/23 06:26:57;;;;;;;12.38;6.97;;;7.70;99.90;;;;;;4922924;29;20534;-84
2022/11/23 06:29:23;;;;;;;18.05;6.88;;;7.70;99.90;;;;;;4922215;29;20137;-84
2022/11/23 06:31:49;;;;;;;16.33;7.38;;;7.70;99.90;;;;;;4921199;29;20504;-83
2022/11/23 06:34:15;;;;;;;10.57;6.85;;;8.90;99.90;;;;;;4920969;29;20050;-83
2022/11/23 06:36:42;;;;;;;10.43;5.82;;;7.70;99.90;;;;;;4914538;29;20484;-84
2022/11/23 06:39:08;;;;;;;12.90;5.63;;;7.80;99.90;;;;;;4952942;29;20078;-83
2022/11/23 06:41:33;;;;;;;16.02;5.72;;;7.80;99.90;;;;;;4928494;29;20047;-84
2022/11/23 06:43:59;;;;;;;11.80;6.45;;;7.80;99.90;;;;;;4921127;29;20039;-84
2022/11/23 06:46:25;;;;;;;16.05;6.57;;;7.80;99.90;;;;;;4936823;29;20081;-83
2022/11/23 06:48:50;;;;;;;11.68;5.78;;;7.80;99.90;;;;;;4921858;29;20047;-84
2022/11/23 06:51:16;;;;;;;15.63;5.88;;;7.80;99.90;;;;;;4920612;29;20044;-83
2022/11/23 06:53:49;;;;;;;18.17;6.93;;;7.90;99.90;;;;;;5112586;27;20420;-89
2022/11/23 06:56:15;;;;;;;13.20;5.53;;;7.90;99.90;;;;;;5104041;28;20058;-89
2022/11/23 06:58:41;;;;;;;19.98;6.32;;;7.90;99.90;;;;;;5094902;28;20261;-89
2022/11/23 07:01:08;;;;;;;15.80;6.32;;;7.90;99.90;;;;;;5112641;28;20173;-89
2022/11/23 07:03:34;;;;;;;15.23;5.80;;;7.90;99.90;;;;;;5094866;28;20123;-88
2022/11/23 07:06:08;;;;;;;13.73;5.75;;;8.00;99.90;;;;;;5097538;28;20364;-89
2022/11/23 07:08:35;;;;;;;13.18;5.38;;;8.00;99.90;;;;;;5097613;28;20440;-89
2022/11/23 07:11:04;;;;;;;15.80;5.47;;;8.00;99.90;;;;;;5095373;28;20040;-88
2022/11/23 07:13:30;;;;;;;13.77;5.35;;;7.90;99.90;;;;;;5109551;28;20055;-87
2022/11/23 07:15:57;;;;;;;18.15;5.68;;;8.00;99.90;;;;;;5076175;28;20044;-87
2022/11/23 07:18:23;;;;;;;14.23;5.72;;;8.00;99.90;;;;;;5093495;28;20039;-87
2022/11/23 07:20:49;;;;;;;12.07;5.90;;;9.10;99.90;;;;;;5076160;28;20039;-87
2022/11/23 07:23:15;;;;;;;10.05;4.85;;;8.00;99.90;;;;;;5074922;28;20051;-89
2022/11/23 07:25:41;;;;;;;12.90;6.07;;;8.00;99.90;;;;;;5094463;28;20446;-89
2022/11/23 07:28:07;;;;;;;16.75;5.90;;;8.10;99.90;;;;;;5095681;28;20067;-88
2022/11/23 07:30:34;;;;;;;12.88;4.88;;;8.80;99.90;;;;;;5099179;28;20043;-89
2022/11/23 07:33:01;;;;;;;12.55;6.13;;;8.00;99.90;;;;;;5082505;28;20071;-89
2022/11/23 07:35:27;;;;;;;15.98;5.72;;;8.10;99.90;;;;;;5091889;28;20104;-88
2022/11/23 07:37:53;;;;;;;17.23;5.75;;;8.10;99.90;;;;;;5083852;28;20048;-88
2022/11/23 07:40:19;;;;;;;10.50;5.20;;;8.40;99.90;;;;;;5124390;28;20051;-88
2022/11/23 07:42:45;;;;;;;15.80;5.88;;;8.50;99.90;;;;;;5076775;28;20036;-89
2022/11/23 07:45:11;;;;;;;14.85;5.72;;;8.10;99.90;;;;;;5095009;28;20044;-89
2022/11/23 07:47:37;;;;;;;12.25;4.97;;;8.30;99.90;;;;;;5074231;28;20851;-90
2022/11/23 07:50:05;;;;;;;14.18;5.40;;;8.20;99.90;;;;;;5100828;28;20123;-90
2022/11/23 07:52:31;;;;;;;15.82;5.30;;;8.10;99.90;;;;;;5091781;28;20041;-89
2022/11/23 07:54:59;;;;;;;13.52;4.28;;;8.50;99.90;;;;;;5100906;28;20052;-89
2022/11/23 07:57:24;;;;;;;13.82;4.85;;;9.00;99.90;;;;;;5076363;28;20118;-89
2022/11/23 07:59:50;;;;;;;16.90;4.88;;;8.10;99.90;;;;;;5080564;28;20507;-89
2022/11/23 08:02:16;;;;;;;11.20;4.13;;;8.20;99.90;;;;;;5075312;28;20036;-82
2022/11/23 08:04:42;;;;;;;13.63;5.00;;;8.20;99.90;;;;;;5079601;28;20028;-82
2022/11/23 08:07:07;;;;;;;14.07;4.35;;;8.20;99.90;;;;;;5059106;28;20665;-83
2022/11/23 08:09:33;;;;;;;14.35;5.05;;;8.40;99.90;;;;;;5075434;28;20085;-82
2022/11/23 08:11:59;;;;;;;19.08;5.65;;;8.20;99.90;;;;;;5076486;28;20412;-82
2022/11/23 08:14:24;;;;;;;11.20;4.93;;;8.20;99.90;;;;;;5044275;28;20044;-82
2022/11/23 08:16:51;;;;;;;13.68;4.72;;;8.20;99.90;;;;;;5075107;28;20500;-82
2022/11/23 08:19:17;;;;;;;13.05;4.40;;;8.20;99.90;;;;;;5076513;28;20469;-82
2022/11/23 08:21:44;;;;;;;13.02;4.43;;;8.30;99.90;;;;;;5076403;28;21006;-83
2022/11/23 08:24:10;;;;;;;13.65;5.13;;;8.30;99.90;;;;;;5076114;28;20051;-82
2022/11/23 08:26:35;;;;;;;13.85;5.00;;;8.20;99.90;;;;;;5060437;28;20040;-82
2022/11/23 08:29:01;;;;;;;13.35;4.18;;;8.30;99.90;;;;;;5092521;28;20043;-83
2022/11/23 08:31:27;;;;;;;17.10;4.40;;;8.30;99.90;;;;;;5041230;28;20105;-83
2022/11/23 08:33:53;;;;;;;11.32;4.00;;;8.30;99.90;;;;;;5076141;28;20441;-82
2022/11/23 08:36:19;;;;;;;12.48;4.20;;;8.30;99.90;;;;;;5058045;28;20040;-82
2022/11/23 08:38:45;;;;;;;9.73;4.38;;;8.30;99.90;;;;;;5059930;28;20040;-82
2022/11/23 08:41:10;;;;;;;15.95;4.85;;;8.30;99.90;;;;;;5060578;28;20146;-81
2022/11/23 08:43:36;;;;;;;18.75;4.00;;;8.30;99.90;;;;;;5059358;28;20511;-82
2022/11/23 08:46:03;;;;;;;12.95;3.90;;;8.30;99.90;;;;;;5075450;28;20044;-82
2022/11/23 08:48:29;;;;;;;14.13;4.05;;;8.30;99.90;;;;;;5072049;28;20079;-82
2022/11/23 08:50:58;;;;;;;13.13;3.72;;;8.20;99.90;;;;;;5076512;28;20071;-82
2022/11/23 08:53:24;;;;;;;11.68;4.10;;;8.30;99.90;;;;;;5058950;28;20106;-82
2022/11/23 08:55:50;;;;;;;12.25;4.10;;;8.30;99.90;;;;;;5075841;28;20051;-81
2022/11/23 08:58:15;;;;;;;17.95;3.97;;;8.30;99.90;;;;;;5074708;28;20040;-82
2022/11/23 09:00:41;;;;;;;18.42;4.63;;;8.40;99.90;;;;;;5092968;28;20048;-81
2022/11/23 09:03:07;;;;;;;18.33;3.88;;;8.30;99.90;;;;;;5042823;28;20641;-81
2022/11/23 09:05:32;;;;;;;20.10;4.72;;;8.40;99.90;;;;;;5091857;28;20043;-82
2022/11/23 09:07:59;;;;;;;16.95;4.30;;;9.50;99.90;;;;;;5075652;28;20051;-81
2022/11/23 09:10:25;;;;;;;14.80;3.88;;;8.50;99.90;;;;;;5074746;28;20099;-81
2022/11/23 09:12:51;;;;;;;17.30;4.50;;;8.50;99.90;;;;;;5067111;28;20078;-82
2022/11/23 09:15:17;;;;;;;23.95;4.93;;;8.60;99.90;;;;;;5072185;28;20038;-82
2022/11/23 09:17:43;;;;;;;17.10;4.50;;;8.60;99.90;;;;;;5093041;28;20089;-82
2022/11/23 09:20:10;;;;;;;13.75;3.75;;;9.30;99.90;;;;;;5091927;28;20044;-82
2022/11/23 09:22:36;;;;;;;19.13;5.10;;;8.70;99.90;;;;;;5074684;28;20123;-82
2022/11/23 09:25:02;;;;;;;13.75;3.25;;;8.70;99.90;;;;;;5067036;28;20396;-83
2022/11/23 09:27:28;;;;;;;18.35;3.88;;;8.70;99.90;;;;;;5074850;28;20447;-82
2022/11/23 09:29:54;;;;;;;13.32;3.83;;;8.70;99.90;;;;;;5074650;28;20101;-82
2022/11/23 09:32:19;;;;;;;15.50;3.97;;;9.20;99.90;;;;;;5041609;28;20074;-82
2022/11/23 09:34:45;;;;;;;13.52;3.47;;;8.80;99.90;;;;;;5075275;28;20067;-82
2022/11/23 09:37:12;;;;;;;17.10;4.30;;;8.80;99.90;;;;;;5057825;28;20403;-82
2022/11/23 09:39:38;;;;;;;13.85;3.38;;;8.80;99.90;;;;;;5092026;28;20491;-83
2022/11/23 09:42:30;;;;;;;15.07;3.85;;;8.80;99.90;;;;;;5073615;28;20078;-82
2022/11/23 09:45:27;;;;;;;12.57;2.83;;;8.90;99.90;;;;;;5074884;28;20369;-83
2022/11/23 09:48:30;;;;;;;12.05;3.38;;;9.00;99.90;;;;;;5074180;28;20058;-82
2022/11/23 09:51:17;;;;;;;13.77;3.35;;;8.90;99.90;;;;;;5066164;28;20056;-83
2022/11/23 09:53:49;;;;;;;14.65;3.53;;;8.90;99.90;;;;;;5091033;28;20056;-82
2022/11/23 09:56:26;;;;;;;14.35;3.63;;;9.00;99.90;;;;;;5091351;28;20047;-82
2022/11/23 09:58:55;;;;;;;13.55;3.08;;;8.90;99.90;;;;;;5071980;28;20162;-82
2022/11/23 10:01:21;;;;;;;14.15;3.50;;;8.90;99.90;;;;;;5073818;28;20089;-82
2022/11/23 10:03:47;;;;;;;7.97;2.63;;;8.90;99.90;;;;;;5073216;28;20439;-82
2022/11/23 10:06:18;;;;;;;17.30;3.38;;;8.80;99.90;;;;;;5074810;28;20048;-82
2022/11/23 10:09:06;;;;;;;15.68;2.95;;;8.90;99.90;;;;;;5073606;28;20079;-82
2022/11/23 10:12:03;;;;;;;15.00;2.95;;;8.90;99.90;;;;;;5073174;28;20151;-82
2022/11/23 10:14:32;;;;;;;17.30;3.22;;;8.90;99.90;;;;;;5074405;28;20599;-83
2022/11/23 10:17:14;;;;;;;16.05;3.10;;;8.90;99.90;;;;;;5073817;28;20455;-83
2022/11/23 10:19:59;;;;;;;8.50;2.38;;;9.00;99.90;;;;;;5089012;28;20044;-84
2022/11/23 10:22:25;;;;;;;10.05;2.83;;;9.00;99.90;;;;;;5074026;28;20501;-84
2022/11/23 10:24:52;;;;;;;13.95;2.63;;;9.00;99.90;;;;;;5064174;28;20052;-83
2022/11/23 10:27:21;;;;;;;15.05;2.95;;;9.00;99.90;;;;;;5070448;28;20032;-83
2022/11/23 10:29:48;;;;;;;21.35;3.95;;;9.00;99.90;;;;;;5072342;28;20117;-83
2022/11/23 10:32:31;;;;;;;18.25;3.20;;;9.00;99.90;;;;;;5073392;28;20068;-84
2022/11/23 10:35:12;;;;;;;18.15;3.20;;;9.10;99.90;;;;;;5089876;28;20032;-84
2022/11/23 10:37:39;;;;;;;13.93;2.83;;;9.10;99.90;;;;;;5088588;28;20032;-84
2022/11/23 10:40:22;;;;;;;9.73;2.38;;;9.20;99.90;;;;;;5055056;28;20039;-83
2022/11/23 10:42:53;;;;;;;24.02;4.22;;;9.20;99.90;;;;;;5089317;28;20044;-83
2022/11/23 10:45:25;;;;;;;18.45;3.47;;;9.30;99.90;;;;;;5068617;28;20120;-83
2022/11/23 10:47:53;;;;;;;19.15;4.03;;;9.30;99.90;;;;;;5073202;28;20043;-84
2022/11/23 10:50:25;;;;;;;15.43;3.33;;;9.50;99.90;;;;;;5072321;28;20185;-84
2022/11/23 10:52:58;;;;;;;14.75;2.97;;;9.80;99.90;;;;;;5069892;28;20056;-84
2022/11/23 10:55:29;;;;;;;12.40;2.33;;;10.20;99.90;;;;;;5090933;28;20488;-84
2022/11/23 10:57:56;;;;;;;15.20;3.35;;;10.50;99.90;;;;;;5071108;28;20036;-83
2022/11/23 11:00:24;;;;;;;13.13;3.08;;;10.50;99.90;;;;;;5057090;28;20036;-83
2022/11/23 11:02:55;;;;;;;13.68;2.75;;;10.70;99.90;;;;;;5065201;28;20039;-84
2022/11/23 11:05:21;;;;;;;11.82;2.53;;;11.00;99.90;;;;;;5075664;28;20047;-82
2022/11/23 11:07:47;;;;;;;12.73;2.55;;;11.40;99.90;;;;;;5068228;28;20124;-83
2022/11/23 11:10:31;;;;;;;15.52;2.95;;;11.60;99.90;;;;;;5058687;28;20127;-83
2022/11/23 11:12:57;;;;;;;10.32;2.58;;;11.70;99.90;;;;;;5071735;28;20041;-83
2022/11/23 11:15:23;;;;;;;13.55;2.70;;;11.60;99.90;;;;;;5038393;28;20089;-83
2022/11/23 11:17:57;;;;;;;12.73;2.80;;;11.50;99.90;;;;;;5070366;28;20039;-84
2022/11/23 11:20:31;;;;;;;9.82;2.25;;;11.40;99.90;;;;;;5074662;28;20036;-83
2022/11/23 11:23:03;;;;;;;13.55;2.97;;;11.40;99.90;;;;;;5067925;28;20074;-84
2022/11/23 11:25:34;;;;;;;9.77;2.45;;;11.70;99.90;;;;;;5090045;28;20728;-83
2022/11/23 11:28:02;;;;;;;9.07;2.55;;;12.10;99.90;;;;;;5076804;28;20079;-83
2022/11/23 11:30:44;;;;;;;10.20;2.38;;;12.30;99.90;;;;;;5070963;28;20071;-82
2022/11/23 11:33:23;;;;;;;9.45;2.20;;;12.40;99.90;;;;;;5102160;28;20032;-83
2022/11/23 11:35:52;;;;;;;11.73;2.28;;;12.60;99.90;;;;;;5092994;28;20202;-81
2022/11/23 11:38:28;;;;;;;13.60;2.67;;;12.70;99.90;;;;;;5070505;28;20081;-84
2022/11/23 11:40:57;;;;;;;14.60;3.30;;;12.40;99.90;;;;;;5092813;28;20043;-84
2022/11/23 11:43:28;;;;;;;15.40;3.03;;;12.10;99.90;;;;;;5095136;28;20137;-83
2022/11/23 11:46:01;;;;;;;10.07;2.30;;;11.80;99.90;;;;;;5078856;28;20051;-83
2022/11/23 11:48:30;;;;;;;13.02;2.78;;;11.50;99.90;;;;;;5069430;28;20036;-84
2022/11/23 11:50:58;;;;;;;10.98;2.28;;;11.30;99.90;;;;;;5095795;28;20047;-86
2022/11/23 11:53:35;;;;;;;13.15;2.60;;;11.10;99.90;;;;;;5076969;28;20101;-83
2022/11/23 11:56:13;;;;;;;20.00;2.50;;;11.10;99.90;;;;;;5101029;28;20036;-82
2022/11/23 11:58:48;;;;;;;8.77;2.10;;;11.00;99.90;;;;;;5103197;28;20048;-82
2022/11/23 12:01:32;;;;;;;10.60;2.30;;;10.90;99.90;;;;;;5081141;28;20170;-83
2022/11/23 12:04:07;;;;;;;10.75;2.17;;;10.80;99.90;;;;;;5081356;28;20040;-82
2022/11/23 12:06:49;;;;;;;11.20;2.08;;;11.00;99.90;;;;;;5101249;28;20043;-82
2022/11/23 12:09:29;;;;;;;11.98;2.75;;;11.00;99.90;;;;;;5097856;28;20071;-82
2022/11/23 12:11:56;;;;;;;10.25;2.30;;;11.00;99.90;;;;;;5092672;28;20541;-82
2022/11/23 12:14:22;;;;;;;7.82;1.70;;;11.00;99.90;;;;;;5076332;28;20040;-83
2022/11/23 12:17:09;;;;;;;14.50;2.53;;;10.90;99.90;;;;;;5073675;28;20118;-83
2022/11/23 12:19:47;;;;;;;12.90;2.40;;;10.80;99.90;;;;;;5069904;28;20039;-82
2022/11/23 12:22:28;;;;;;;10.82;2.92;;;10.70;99.90;;;;;;5089719;28;20074;-82
2022/11/23 12:25:35;;;;;;;9.93;2.15;;;10.70;99.90;;;;;;5075393;28;20394;-82
2022/11/23 12:28:15;;;;;;;11.35;2.22;;;10.60;99.90;;;;;;5075942;28;20496;-82
2022/11/23 12:30:53;;;;;;;10.07;2.38;;;10.60;99.90;;;;;;5073758;28;20052;-83
2022/11/23 12:33:45;;;;;;;8.73;2.50;;;10.70;99.90;;;;;;5073935;28;20048;-82
2022/11/23 12:36:32;;;;;;;16.67;3.55;;;10.70;99.90;;;;;;5060622;28;20044;-83
2022/11/23 12:39:24;;;;;;;9.43;2.10;;;10.60;99.90;;;;;;5091232;28;20036;-82
2022/11/23 12:41:58;;;;;;;12.27;1.90;;;10.60;99.90;;;;;;5086170;28;20044;-83
2022/11/23 12:44:33;;;;;;;15.80;2.83;;;10.70;99.90;;;;;;5074697;28;20054;-82
2022/11/23 12:47:10;;;;;;;10.18;1.88;;;10.70;99.90;;;;;;5090488;28;20038;-82
2022/11/23 12:49:42;;;;;;;10.07;2.33;;;10.80;99.90;;;;;;5071017;28;20054;-82
2022/11/23 12:52:34;;;;;;;12.18;2.08;;;10.90;99.90;;;;;;5074565;28;20052;-83